This is the latest recevied weather packets stored in our database for station/object K9MWD. If no packets are shown the sender has not sent any weather packets the latest 10 day(s).
| Time | Temp. | Humidity | Pressure | Rain* | Wind** | Luminosity | Snow |
|---|---|---|---|---|---|---|---|
| 1777485258 | 15.56° C | 86% | 1015.3 hPa | 0 mm | - | 131 W/m² | - |
| 1777484954 | 15.56° C | 85% | 1015.7 hPa | 0 mm | - | 88 W/m² | - |
| 1777484651 | 16.11° C | 84% | 1015.6 hPa | 0 mm | - | 93 W/m² | - |
| 1777484348 | 16.11° C | 84% | 1015.8 hPa | 0 mm | - | 68 W/m² | - |
| 1777484043 | 16.11° C | 84% | 1015.7 hPa | 0 mm | - | 63 W/m² | - |
| 1777483740 | 16.11° C | 84% | 1015.6 hPa | 0 mm | - | 69 W/m² | - |
| 1777483436 | 16.11° C | 84% | 1015.6 hPa | 0 mm | - | 63 W/m² | - |
| 1777483131 | 16.11° C | 84% | 1015.5 hPa | 0 mm | - | 58 W/m² | - |
| 1777482829 | 16.11° C | 84% | 1015 hPa | 0 mm | - | 83 W/m² | - |
| 1777482524 | 16.11° C | 83% | 1015 hPa | 0 mm | - | 81 W/m² | - |
| 1777482222 | 16.11° C | 83% | 1015.2 hPa | 0 mm | - | 152 W/m² | - |
| 1777481919 | 15.56° C | 83% | 1015.4 hPa | 0 mm | - | 150 W/m² | - |
| 1777481617 | 16.11° C | 83% | 1015.5 hPa | 0 mm | - | 145 W/m² | - |
| 1777481314 | 16.11° C | 83% | 1015.6 hPa | 0 mm | - | 93 W/m² | - |
| 1777481010 | 15.56° C | 84% | 1015.8 hPa | 0 mm | - | 60 W/m² | - |
| 1777480707 | 15.56° C | 84% | 1016 hPa | 0 mm | - | 73 W/m² | - |
| 1777480404 | 16.11° C | 84% | 1015.5 hPa | 0 mm | - | 141 W/m² | - |
| 1777480099 | 16.11° C | 83% | 1015.3 hPa | 0 mm | - | 212 W/m² | - |
| 1777479796 | 15.56° C | 84% | 1015.7 hPa | 0 mm | - | 118 W/m² | - |
| 1777479493 | 15.56° C | 83% | 1016.1 hPa | 0 mm | - | 72 W/m² | - |
| 1777479190 | 16.11° C | 83% | 1016.1 hPa | 0 mm | - | 53 W/m² | - |
| 1777478887 | 16.11° C | 83% | 1015.8 hPa | 0 mm | - | 66 W/m² | - |
| 1777478582 | 15.56° C | 83% | 1015.5 hPa | 0 mm | - | 79 W/m² | - |
| 1777478279 | 16.11° C | 83% | 1015.4 hPa | 0 mm | - | 65 W/m² | - |
| 1777477976 | 16.11° C | 83% | 1015.4 hPa | 0 mm | - | 74 W/m² | - |
* Rain latest hour (hover to see other rain measurements)
** Current wind speed in m/s (hover to see current wind gust speed)